Flight Track Log - Related Links

Times and Time Zones

All times are in EDT time to prevent confusion due to time zone crossing. See the TAM3226 flight status page for this flight to view local times or setup timezone preferences in your user account.

Time Position Orientation Groundspeed Altitude Reporting Facility
EDT Latitude Longitude Course Direction KTS MPH feet Rate Location/Type
Wed 07:24:32 PM -23.6220 -46.6600 335° Northwest  Level FlightAware ADS-B
Wed 07:27:00 PM -23.4531 -46.5423 33° Northeast  Level Estimated
Wed 07:28:00 PM -23.3846 -46.4946 33° Northeast  Level Estimated
Wed 07:29:00 PM -23.3161 -46.4470 33° Northeast  Level Estimated
Wed 07:29:07 PM -23.6220 -46.6610 33° Northeast  Level FlightAware ADS-B
Wed 07:32:00 PM -23.4750 -46.5591 33° Northeast  Level Estimated
Wed 07:32:06 PM -23.6200 -46.6610 33° Northeast  Level FlightAware ADS-B
Wed 07:33:22 PM -23.6440 -46.6440 146° Southeast 158 182 3,500 2,659 Climbing FlightAware ADS-B
Wed 07:33:34 PM -23.6480 -46.6350 116° Southeast 172 198 3,900 1,667 Climbing FlightAware ADS-B
Wed 07:33:40 PM -23.6490 -46.6300 102° East 186 214 4,000 2,357 Climbing FlightAware ADS-B
Wed 07:34:02 PM -23.6400 -46.6110 63° Northeast 217 250 5,000 3,000 Climbing FlightAware ADS-B
Wed 07:34:10 PM -23.6320 -46.6050 34° Northeast 218 251 5,500 3,300 Climbing FlightAware ADS-B
Wed 07:34:22 PM -23.6220 -46.5980 33° Northeast 218 251 6,100 2,571 Climbing FlightAware ADS-B
Wed 07:34:31 PM -23.6170 -46.5910 52° Northeast 209 241 6,400 2,250 Climbing FlightAware ADS-B
Wed 07:34:38 PM -23.6130 -46.5850 54° Northeast 209 241 6,700 2,000 Climbing FlightAware ADS-B
Wed 07:34:46 PM -23.6110 -46.5770 75° East 203 234 6,900 643 Climbing FlightAware ADS-B
Wed 07:35:06 PM -23.6070 -46.5530 80° East 244 281 7,000 600 Climbing FlightAware ADS-B
Wed 07:35:26 PM -23.6000 -46.5280 73° East 265 305 7,300 1,902 Climbing FlightAware ADS-B
Wed 07:35:47 PM -23.5940 -46.5010 76° East 282 325 8,300 2,455 Climbing FlightAware ADS-B
Wed 07:36:10 PM -23.5860 -46.4660 76° East 317 365 9,100 2,093 Climbing FlightAware ADS-B
Wed 07:36:30 PM -23.5790 -46.4350 76° East 323 372 9,800 1,038 Climbing FlightAware ADS-B
Wed 07:37:02 PM -23.5670 -46.3840 76° East 324 373 10,000 1,059 Climbing FlightAware ADS-B
Wed 07:37:38 PM -23.5530 -46.3230 76° East 363 418 11,000 2,091 Climbing FlightAware ADS-B
Wed 07:38:08 PM -23.5350 -46.2720 69° East 374 430 12,300 2,684 Climbing FlightAware ADS-B
Wed 07:38:16 PM -23.5260 -46.2610 48° Northeast 372 428 12,700 3,143 Climbing FlightAware ADS-B
Wed 07:38:29 PM -23.5080 -46.2480 34° Northeast 361 415 13,400 3,120 Climbing FlightAware ADS-B
Wed 07:38:41 PM -23.4890 -46.2430 14° North 353 406 14,000 2,939 Climbing FlightAware ADS-B
Wed 07:39:18 PM -23.4280 -46.2320 North 360 414 15,800 2,833 Climbing FlightAware ADS-B
Wed 07:39:53 PM -23.3700 -46.2210 10° North 371 427 17,400 2,418 Climbing FlightAware ADS-B
Wed 07:40:25 PM -23.3150 -46.2120 North 387 445 18,500 2,029 Climbing FlightAware ADS-B
Wed 07:41:01 PM -23.2510 -46.2000 10° North 406 467 19,700 2,197 Climbing FlightAware ADS-B
Wed 07:41:36 PM -23.1840 -46.1880 North 405 466 21,100 2,229 Climbing FlightAware ADS-B
Wed 07:42:11 PM -23.1180 -46.1760 North 424 488 22,300 2,143 Climbing FlightAware ADS-B
Wed 07:42:32 PM -23.0770 -46.1600 20° North 437 503 23,100 2,000 Climbing FlightAware ADS-B
Wed 07:43:11 PM -23.0080 -46.1110 33° Northeast 458 527 24,300 1,886 Climbing FlightAware ADS-B
Wed 07:43:42 PM -22.9520 -46.0740 31° Northeast 455 524 25,300 1,818 Climbing FlightAware ADS-B
Wed 07:44:17 PM -22.8880 -46.0300 32° Northeast 470 541 26,300 1,543 Climbing FlightAware ADS-B
Wed 07:44:52 PM -22.8220 -45.9860 32° Northeast 477 549 27,100 1,371 Climbing FlightAware ADS-B
Wed 07:45:27 PM -22.7540 -45.9390 33° Northeast 495 570 27,900 1,543 Climbing FlightAware ADS-B
Wed 07:46:02 PM -22.6860 -45.8940 31° Northeast 498 573 28,900 1,629 Climbing FlightAware ADS-B
Wed 07:46:37 PM -22.6160 -45.8460 32° Northeast 498 573 29,800 1,457 Climbing FlightAware ADS-B
Wed 07:47:12 PM -22.5460 -45.7990 32° Northeast 512 589 30,600 1,714 Climbing FlightAware ADS-B
Wed 07:47:47 PM -22.4770 -45.7520 32° Northeast 500 575 31,800 2,057 Climbing FlightAware ADS-B
Wed 07:48:22 PM -22.4060 -45.7040 32° Northeast 494 568 33,000 1,944 Climbing FlightAware ADS-B
Wed 07:48:58 PM -22.3360 -45.6570 32° Northeast 492 566 34,100 1,775 Climbing FlightAware ADS-B
Wed 07:49:33 PM -22.2660 -45.6100 32° Northeast 496 571 35,100 1,543 Climbing FlightAware ADS-B
Wed 07:50:08 PM -22.2020 -45.5670 32° Northeast 496 571 35,900 1,238 Climbing FlightAware ADS-B
Wed 07:50:36 PM -22.1450 -45.5290 32° Northeast 492 566 36,400 985 Climbing FlightAware ADS-B
Wed 07:51:15 PM -22.0690 -45.4780 32° Northeast 498 573 37,000 514 Climbing FlightAware ADS-B
Wed 07:51:46 PM -22.0090 -45.4380 32° Northeast 498 573 37,000  Level FlightAware ADS-B
Wed 07:52:33 PM -21.9100 -45.3790 29° Northeast 493 567 37,000  Level FlightAware ADS-B
Wed 07:53:13 PM -21.8280 -45.3320 28° Northeast 489 563 37,000  Level FlightAware ADS-B
Wed 07:53:43 PM -21.7690 -45.2990 27° Northeast 490 564 37,000  Level FlightAware ADS-B
Wed 07:54:18 PM -21.6950 -45.2570 28° Northeast 495 570 37,000 -343 Level FlightAware ADS-B
Wed 07:54:53 PM -21.6440 -45.2280 28° Northeast 495 570 36,600 -720 Descending FlightAware ADS-B
Wed 07:55:33 PM -21.5670 -45.1850 27° Northeast 482 555 36,100 -904 Descending FlightAware ADS-B
Wed 07:56:06 PM -21.5020 -45.1480 28° Northeast 480 552 35,500 -1,200 Descending FlightAware ADS-B
Wed 07:56:38 PM -21.4140 -45.0980 28° Northeast 478 550 34,800 -1,500 Descending FlightAware ADS-B
Wed 07:57:18 PM -21.3360 -45.0540 28° Northeast 479 551 33,700 -1,840 Descending FlightAware ADS-B
Wed 07:57:53 PM -21.2750 -45.0200 27° Northeast 476 548 32,500 -2,239 Descending FlightAware ADS-B
Wed 07:58:25 PM -21.2010 -44.9780 28° Northeast 478 550 31,200 -2,239 Descending FlightAware ADS-B
Wed 07:59:00 PM -21.1330 -44.9400 28° Northeast 469 540 30,000 -1,971 Descending FlightAware ADS-B
Wed 07:59:35 PM -21.0660 -44.9030 27° Northeast 460 529 28,900 -1,886 Descending FlightAware ADS-B
Wed 08:02:00 PM -20.9233 -44.8090 32° Northeast  Level Estimated
Wed 08:03:00 PM -20.8643 -44.7702 32° Northeast  Level Estimated
Wed 08:04:00 PM -20.8052 -44.7314 32° Northeast  Level Estimated
Wed 08:05:00 PM -20.7461 -44.6926 32° Northeast  Level Estimated
Wed 08:06:00 PM -20.6871 -44.6538 32° Northeast  Level Estimated
Wed 08:07:00 PM -20.6280 -44.6151 32° Northeast  Level Estimated
Wed 08:08:00 PM -20.5689 -44.5764 32° Northeast  Level Estimated
Wed 08:09:00 PM -20.5098 -44.5378 31° Northeast  Level Estimated
Wed 08:10:00 PM -20.4506 -44.4991 31° Northeast  Level Estimated
Wed 08:11:00 PM -20.3915 -44.4605 31° Northeast  Level Estimated
Wed 08:12:00 PM -20.3324 -44.4220 31° Northeast  Level Estimated
Wed 08:13:00 PM -20.2733 -44.3834 31° Northeast  Level Estimated
Wed 08:14:00 PM -20.2141 -44.3449 31° Northeast  Level Estimated
Wed 08:15:00 PM -20.1549 -44.3064 31° Northeast  Level Estimated
Wed 08:16:00 PM -20.0958 -44.2680 31° Northeast  Level Estimated
Wed 08:17:00 PM -20.0366 -44.2295 31° Northeast  Level Estimated
Wed 08:18:00 PM -19.9774 -44.1912 31° Northeast  Level Estimated
Wed 08:19:00 PM -19.9182 -44.1528 31° Northeast  Level Estimated
Wed 08:20:00 PM -19.8590 -44.1144 31° Northeast  Level Estimated
Wed 08:21:00 PM -19.7998 -44.0761 31° Northeast  Level Estimated
Wed 08:22:00 PM -19.7406 -44.0378 31° Northeast  Level Estimated
Wed 08:23:00 PM -19.6814 -43.9996 31° Northeast  Level Estimated
Wed 08:23:43 PM -19.6360 -43.9630 31° Northeast  Level FlightAware ADS-B
Wed 08:26:00 PM -19.6338 -43.9689 292° West  Level Estimated
Wed 08:27:00 PM -19.6338 -43.9689 90° East  Level Estimated
Wed 08:28:00 PM -19.6338 -43.9689 90° East  Level Estimated
Wed 08:32:51 PM -19.6320 -43.9650 270° West  Level FlightAware ADS-B
Wed 08:36:00 PM -19.6320 -43.9640 90° East  Level FlightAware ADS-B
Wed 08:37:40 PM -19.6320 -43.9650 270° West  Level FlightAware ADS-B

Login

Don't have an account? Register now (free) for customized features, flight alerts, and more!